Погода Половцына 2 недели

Смоленская область, Россия

23 мая-04 июня
  • 23мая
    Сегодня
    +6°
    +21°
    Ясно и безоблачно
    ВремяПогодаТемператураВлажностьДавлениеВетер, м/сВероятность осадков
    00:00Ясно и безоблачно+11°C51 %750 мм3.6 м/с2 %
    03:00Ясно и безоблачно+9°C58 %750 мм3.1 м/с2 %
    06:00Ясно и безоблачно+9°C63 %752 мм3.0 м/с2 %
    09:00Ясно и безоблачно+15°C54 %753 мм3.1 м/с2 %
    12:00Ясно и безоблачно+19°C38 %753 мм4.3 м/с2 %
    15:00Ясно и безоблачно+20°C37 %753 мм3.9 м/с2 %
    18:00Ясно и безоблачно+20°C40 %753 мм3.9 м/с2 %
    21:00Ясно и безоблачно+14°C56 %753 мм2.4 м/с2 %
  • 24мая
    Пятница
    +5°
    +20°
    Ясно и безоблачно
    ВремяПогодаТемператураВлажностьДавлениеВетер, м/сВероятность осадков
    00:00Ясно и безоблачно+9°C61 %754 мм2.5 м/с2 %
    03:00Ясно и безоблачно+7°C68 %755 мм2.2 м/с2 %
    06:00Ясно и безоблачно+8°C70 %756 мм2.2 м/с2 %
    09:00Ясно и безоблачно+14°C48 %757 мм2.6 м/с2 %
    12:00Ясно и безоблачно+18°C37 %756 мм3.6 м/с2 %
    15:00Ясно и безоблачно+19°C32 %756 мм3.5 м/с2 %
    18:00Ясно и безоблачно+20°C36 %755 мм2.7 м/с2 %
    21:00Ясно и безоблачно+13°C58 %755 мм2.2 м/с2 %
  • 25мая
    Суббота
    +8°
    +23°
    Ясно и безоблачно
    ВремяПогодаТемператураВлажностьДавлениеВетер, м/сВероятность осадков
    00:00Ясно и безоблачно+8°C67 %754 мм2.4 м/с2 %
    03:00Ясно и безоблачно+6°C76 %754 мм2.1 м/с2 %
    06:00Ясно и безоблачно+7°C77 %754 мм2.2 м/с2 %
    09:00Ясно и безоблачно+15°C61 %754 мм1.8 м/с2 %
    12:00Практически безоблачно+20°C43 %753 мм2.5 м/с2 %
    15:00Ясно и безоблачно+22°C39 %752 мм3.1 м/с2 %
    18:00Ясно и безоблачно+22°C42 %751 мм2.5 м/с2 %
    21:00Ясно и безоблачно+15°C66 %750 мм2.2 м/с2 %
  • 26мая
    Воскресенье
    +10°
    +25°
    Облачно с прояснениями
    ВремяПогодаТемператураВлажностьДавлениеВетер, м/сВероятность осадков
    00:00Ясно и безоблачно+11°C72 %750 мм2.4 м/с2 %
    03:00Ясно и безоблачно+9°C75 %750 мм2.8 м/с2 %
    06:00Ясно и безоблачно+10°C74 %750 мм2.6 м/с2 %
    09:00Ясно и безоблачно+19°C61 %750 мм2.0 м/с2 %
    12:00Ясно и безоблачно+23°C42 %750 мм2.2 м/с7 %
    15:00Облачно с прояснениями+24°C39 %749 мм2.0 м/с22 %
    18:00Небольшая облачность+25°C44 %749 мм1.6 м/с14 %
    21:00Ясно и безоблачно+19°C60 %749 мм3.3 м/с9 %
Мы используем cookies
Соглашаюсь